createdAt,value
2023-05-24T00:02:15.496Z,97898.78
2023-05-24T00:12:03.303Z,97893.66
2023-05-24T00:14:30.240Z,97891.31
2023-05-24T00:16:57.232Z,97881.00
2023-05-24T00:19:24.256Z,97886.75
2023-05-24T00:21:51.489Z,97879.75
2023-05-24T00:24:18.454Z,97889.25
2023-05-24T00:26:45.501Z,97888.69
2023-05-24T00:29:12.295Z,97877.41
2023-05-24T00:31:39.177Z,97883.16
2023-05-24T00:34:06.467Z,97885.47
2023-05-24T00:36:33.859Z,97880.50
2023-05-24T00:39:00.773Z,97876.34
2023-05-24T00:41:27.690Z,97879.66
2023-05-24T00:43:54.770Z,97874.94
2023-05-24T00:46:27.581Z,97872.03
2023-05-24T00:48:56.910Z,97867.19
2023-05-24T00:51:27.201Z,97873.34
2023-05-24T00:53:55.089Z,97863.03
2023-05-24T00:56:23.023Z,97866.75
2023-05-24T00:58:54.533Z,97873.75
2023-05-24T01:01:25.527Z,97873.06
2023-05-24T01:03:54.012Z,97874.97
2023-05-24T01:06:21.610Z,97869.16
2023-05-24T01:09:15.503Z,97872.88
2023-05-24T01:12:21.367Z,97873.69
2023-05-24T01:15:10.290Z,97867.09
2023-05-24T01:17:51.697Z,97869.16
2023-05-24T01:20:22.492Z,97871.16
2023-05-24T01:23:12.339Z,97871.56
2023-05-24T01:26:09.220Z,97869.34
2023-05-24T01:28:36.504Z,97857.75
2023-05-24T01:33:32.393Z,97871.22
2023-05-24T01:35:59.132Z,97870.06
2023-05-24T01:38:25.970Z,97873.31
2023-05-24T01:41:03.710Z,97875.69
2023-05-24T01:43:48.668Z,97868.41
2023-05-24T01:46:37.332Z,97862.44
2023-05-24T01:49:22.307Z,97871.34
2023-05-24T01:52:01.847Z,97875.19
2023-05-24T01:54:38.425Z,97869.63
2023-05-24T01:57:10.451Z,97863.84
2023-05-24T01:59:41.444Z,97873.44
2023-05-24T02:02:08.283Z,97877.25
2023-05-24T02:04:35.241Z,97875.94
2023-05-24T02:07:02.012Z,97881.53
2023-05-24T02:09:28.761Z,97881.66
2023-05-24T02:11:55.707Z,97878.72
2023-05-24T02:14:22.522Z,97883.22
2023-05-24T02:16:50.621Z,97884.41
2023-05-24T02:19:17.553Z,97884.88
2023-05-24T02:21:44.425Z,97893.66
2023-05-24T02:24:12.384Z,97880.88
2023-05-24T02:26:39.531Z,97883.63
2023-05-24T02:29:06.765Z,97887.28
2023-05-24T02:31:33.677Z,97884.00
2023-05-24T02:34:00.620Z,97885.84
2023-05-24T02:36:27.532Z,97881.59
2023-05-24T02:38:54.376Z,97880.06
2023-05-24T02:41:22.052Z,97886.34
2023-05-24T02:43:49.017Z,97880.44
2023-05-24T02:46:16.183Z,97878.78
2023-05-24T02:48:43.032Z,97876.31
2023-05-24T02:51:09.842Z,97879.03
2023-05-24T02:53:36.630Z,97884.47
2023-05-24T02:56:03.468Z,97879.25
2023-05-24T02:58:30.368Z,97875.81
2023-05-24T03:00:57.215Z,97881.16
2023-05-24T03:03:24.173Z,97882.94
2023-05-24T03:05:51.059Z,97887.31
2023-05-24T03:08:17.813Z,97880.34
2023-05-24T03:10:44.841Z,97891.31
2023-05-24T03:13:11.648Z,97887.31
2023-05-24T03:15:38.400Z,97891.69
2023-05-24T03:18:05.239Z,97900.59
2023-05-24T03:20:33.816Z,97893.03
2023-05-24T03:23:00.960Z,97885.91
2023-05-24T03:25:27.814Z,97888.63
2023-05-24T03:27:55.115Z,97895.72
2023-05-24T03:30:21.925Z,97898.31
2023-05-24T03:32:48.693Z,97893.22
2023-05-24T03:35:15.501Z,97889.81
2023-05-24T03:37:42.335Z,97887.81
2023-05-24T03:40:09.573Z,97887.81
2023-05-24T03:42:36.362Z,97892.78
2023-05-24T03:45:03.814Z,97891.25
2023-05-24T03:47:30.737Z,97892.06
2023-05-24T03:49:58.082Z,97895.25
2023-05-24T03:52:25.760Z,97888.97
2023-05-24T03:54:52.628Z,97894.88
2023-05-24T03:57:19.429Z,97893.94
2023-05-24T03:59:46.228Z,97891.31
2023-05-24T04:02:13.001Z,97895.84
2023-05-24T04:04:39.822Z,97897.72
2023-05-24T04:07:07.877Z,97900.22
2023-05-24T04:09:34.638Z,97913.94
2023-05-24T04:12:02.054Z,97908.63
2023-05-24T04:14:28.844Z,97909.34
2023-05-24T04:16:55.675Z,97909.34
2023-05-24T04:19:22.510Z,97911.94
2023-05-24T04:21:50.304Z,97914.56
2023-05-24T04:24:17.107Z,97908.41
2023-05-24T04:26:44.690Z,97907.44
2023-05-24T04:29:11.473Z,97907.31
2023-05-24T04:31:38.378Z,97904.00
2023-05-24T04:34:07.323Z,97910.50
2023-05-24T04:36:35.502Z,97909.56
2023-05-24T04:39:05.186Z,97907.91
2023-05-24T04:41:32.367Z,97905.16
2023-05-24T04:44:01.815Z,97913.81
2023-05-24T04:46:28.731Z,97910.25
2023-05-24T04:48:55.623Z,97913.59
2023-05-24T04:51:23.425Z,97910.63
2023-05-24T04:53:50.308Z,97906.94
2023-05-24T04:56:20.607Z,97905.75
2023-05-24T04:58:48.269Z,97903.63
2023-05-24T05:01:15.234Z,97911.06
2023-05-24T05:03:42.252Z,97901.94
2023-05-24T05:06:09.119Z,97902.66
2023-05-24T05:08:35.858Z,97903.47
2023-05-24T05:11:02.924Z,97914.59
2023-05-24T05:13:29.743Z,97916.94
2023-05-24T05:15:56.476Z,97910.78
2023-05-24T05:18:23.224Z,97911.28
2023-05-24T05:20:50.045Z,97911.13
2023-05-24T05:23:16.846Z,97915.16
2023-05-24T05:25:43.600Z,97912.97
2023-05-24T05:28:10.448Z,97916.91
2023-05-24T05:30:37.240Z,97919.25
2023-05-24T05:33:06.069Z,97923.16
2023-05-24T05:35:33.280Z,97911.53
2023-05-24T05:38:00.115Z,97925.25
2023-05-24T05:40:26.929Z,97920.75
2023-05-24T05:42:53.840Z,97923.59
2023-05-24T05:45:20.995Z,97923.47
2023-05-24T05:47:47.820Z,97929.66
2023-05-24T05:50:14.663Z,97929.66
2023-05-24T05:52:42.021Z,97935.44
2023-05-24T05:55:09.511Z,97937.09
2023-05-24T05:57:36.453Z,97932.47
2023-05-24T06:00:03.822Z,97932.47
2023-05-24T06:02:30.731Z,97934.25
2023-05-24T06:04:57.659Z,97934.97
2023-05-24T06:07:24.549Z,97937.44
2023-05-24T06:09:51.318Z,97953.91
2023-05-24T06:12:18.113Z,97942.28
2023-05-24T06:14:44.885Z,97947.50
2023-05-24T06:17:12.441Z,97948.06
2023-05-24T06:19:39.235Z,97944.97
2023-05-24T06:22:06.499Z,97939.38
2023-05-24T06:24:34.695Z,97941.63
2023-05-24T06:27:03.314Z,97941.63
2023-05-24T06:29:32.138Z,97942.56
2023-05-24T06:31:59.140Z,97949.66
2023-05-24T06:34:25.965Z,97950.28
2023-05-24T06:36:52.808Z,97950.59
2023-05-24T06:39:19.886Z,97950.75
2023-05-24T06:41:47.046Z,97960.22
2023-05-24T06:44:14.055Z,97959.53
2023-05-24T06:46:40.895Z,97963.53
2023-05-24T06:49:08.491Z,97964.63
2023-05-24T06:51:35.941Z,97963.31
2023-05-24T06:54:02.811Z,97968.84
2023-05-24T06:56:29.642Z,97966.09
2023-05-24T06:58:56.986Z,97965.97
2023-05-24T07:01:23.961Z,97974.50
2023-05-24T07:03:50.846Z,97981.28
2023-05-24T07:06:18.347Z,97978.41
2023-05-24T07:08:45.131Z,97974.13
2023-05-24T07:11:12.105Z,97980.31
2023-05-24T07:13:39.127Z,97985.66
2023-05-24T07:16:07.097Z,97973.03
2023-05-24T07:18:34.007Z,97985.91
2023-05-24T07:21:01.005Z,97993.50
2023-05-24T07:23:28.061Z,97990.63
2023-05-24T07:25:54.841Z,97988.00
2023-05-24T07:28:21.795Z,97988.19
2023-05-24T07:30:48.930Z,97983.75
2023-05-24T07:33:16.652Z,97984.63
2023-05-24T07:35:45.512Z,97987.16
2023-05-24T07:38:12.513Z,97983.38
2023-05-24T07:40:39.312Z,97981.59
2023-05-24T07:43:06.127Z,97987.81
2023-05-24T07:45:32.927Z,97981.72
2023-05-24T07:47:59.895Z,97981.28
2023-05-24T07:50:27.173Z,97980.84
2023-05-24T07:52:54.605Z,97983.19
2023-05-24T07:55:21.598Z,97987.47
2023-05-24T07:57:48.393Z,97986.63
2023-05-24T08:00:16.425Z,97988.56
2023-05-24T08:02:46.204Z,97987.41
2023-05-24T08:05:13.818Z,97984.09
2023-05-24T08:07:41.828Z,97976.78
2023-05-24T08:10:12.570Z,97987.66
2023-05-24T08:12:39.712Z,97992.19
2023-05-24T08:15:07.418Z,97984.09
2023-05-24T08:17:34.393Z,97989.38
2023-05-24T08:20:01.256Z,97984.56
2023-05-24T08:22:28.094Z,97990.25
2023-05-24T08:24:55.976Z,97990.94
2023-05-24T08:27:23.597Z,97985.72
2023-05-24T08:29:50.443Z,97990.00
2023-05-24T08:32:17.263Z,97992.06
2023-05-24T08:34:44.173Z,97990.50
2023-05-24T08:37:12.204Z,98000.84
2023-05-24T08:39:39.862Z,97997.00
2023-05-24T08:42:09.368Z,98002.09
2023-05-24T08:44:48.390Z,97999.50
2023-05-24T08:47:16.483Z,98004.56
2023-05-24T08:49:44.154Z,98004.56
2023-05-24T08:52:13.650Z,98007.88
2023-05-24T08:54:41.739Z,98006.09
2023-05-24T08:57:11.826Z,98006.81
2023-05-24T08:59:41.931Z,98011.50
2023-05-24T09:02:14.619Z,98010.19
2023-05-24T09:04:44.406Z,98006.69
2023-05-24T09:07:14.775Z,98005.31
2023-05-24T09:09:49.789Z,98011.50
2023-05-24T09:12:35.435Z,98011.25
2023-05-24T09:15:07.204Z,98008.38
2023-05-24T09:17:38.787Z,98020.00
2023-05-24T09:20:09.966Z,98023.31
2023-05-24T09:22:40.992Z,98025.91
2023-05-24T09:25:11.141Z,98022.34
2023-05-24T09:27:38.807Z,98020.97
2023-05-24T09:30:10.831Z,98027.97
2023-05-24T09:32:38.114Z,98019.56
2023-05-24T09:35:10.053Z,98035.47
2023-05-24T09:37:38.782Z,98025.28
2023-05-24T09:40:10.863Z,98029.41
2023-05-24T09:42:38.363Z,98027.91
2023-05-24T09:45:10.502Z,98025.97
2023-05-24T09:47:40.982Z,98013.38
2023-05-24T09:50:17.696Z,98025.63
2023-05-24T09:52:45.452Z,98025.50
2023-05-24T09:55:20.110Z,98028.81
2023-05-24T09:58:03.003Z,98024.81
2023-05-24T10:00:33.161Z,98024.53
2023-05-24T10:03:09.044Z,98017.94
2023-05-24T10:05:36.858Z,98027.84
2023-05-24T10:08:09.480Z,98027.56
2023-05-24T10:10:36.870Z,98018.53
2023-05-24T10:13:03.885Z,98027.28
2023-05-24T10:15:30.973Z,98021.28
2023-05-24T10:17:58.965Z,98016.50
2023-05-24T10:20:26.762Z,98015.78
2023-05-24T10:23:03.932Z,98017.91
2023-05-24T10:25:35.426Z,98018.34
2023-05-24T10:28:09.940Z,98011.47
2023-05-24T10:31:08.107Z,98007.91
2023-05-24T10:33:37.541Z,98013.72
2023-05-24T10:36:09.993Z,97996.91
2023-05-24T10:38:41.910Z,97994.00
2023-05-24T10:41:09.153Z,97993.03
2023-05-24T10:43:38.186Z,98006.03
2023-05-24T10:46:08.899Z,97987.25
2023-05-24T10:48:41.379Z,97995.25
2023-05-24T10:51:34.839Z,97997.88
2023-05-24T10:54:18.877Z,98004.91
2023-05-24T10:56:50.214Z,98004.63
2023-05-24T10:59:39.238Z,98020.06
2023-05-24T11:02:16.461Z,98011.09
2023-05-24T11:04:47.571Z,98018.41
2023-05-24T11:07:15.802Z,98029.16
2023-05-24T11:09:46.512Z,98005.03
2023-05-24T11:12:20.596Z,98012.22
2023-05-24T11:14:53.065Z,98005.50
2023-05-24T11:17:23.127Z,98010.00
2023-05-24T11:19:53.589Z,98002.97
2023-05-24T11:22:25.802Z,98007.97
2023-05-24T11:24:53.447Z,98012.78
2023-05-24T11:27:20.596Z,98008.50
2023-05-24T11:29:48.632Z,98013.16
2023-05-24T11:32:18.855Z,98004.63
2023-05-24T11:34:47.583Z,98011.22
2023-05-24T11:37:17.211Z,98002.69
2023-05-24T11:39:52.910Z,98008.47
2023-05-24T11:42:22.984Z,98007.22
2023-05-24T11:44:50.439Z,97999.38
2023-05-24T11:47:20.662Z,98003.22
2023-05-24T11:49:51.516Z,98005.66
2023-05-24T11:52:18.299Z,97999.59
2023-05-24T11:54:45.118Z,97994.28
2023-05-24T11:57:18.217Z,97993.19
2023-05-24T11:59:44.981Z,97994.78
2023-05-24T12:02:11.857Z,97996.69
2023-05-24T12:04:39.150Z,97998.88
2023-05-24T12:07:12.218Z,97994.50
2023-05-24T12:09:38.984Z,97998.78
2023-05-24T12:12:07.262Z,97993.13
2023-05-24T12:14:35.463Z,97994.16
2023-05-24T12:17:02.489Z,97987.16
2023-05-24T12:19:36.949Z,97980.66
2023-05-24T12:22:08.158Z,97983.25
2023-05-24T12:24:35.763Z,97980.44
2023-05-24T12:27:09.067Z,97979.44
2023-05-24T12:29:39.730Z,97979.56
2023-05-24T12:32:12.350Z,97978.81
2023-05-24T12:34:44.673Z,97978.38
2023-05-24T12:37:13.382Z,97983.78
2023-05-24T12:39:42.577Z,97985.63
2023-05-24T12:42:12.109Z,97974.97
2023-05-24T12:44:39.868Z,97974.44
2023-05-24T12:47:08.955Z,97976.50
2023-05-24T12:49:36.643Z,97980.91
2023-05-24T12:52:04.337Z,97965.06
2023-05-24T12:54:31.479Z,97968.16
2023-05-24T12:57:03.158Z,97969.56
2023-05-24T12:59:30.476Z,97960.78
2023-05-24T13:01:57.811Z,97967.31
2023-05-24T13:04:27.098Z,97966.28
2023-05-24T13:06:54.667Z,97964.81
2023-05-24T13:09:23.185Z,97951.19
2023-05-24T13:11:50.411Z,97956.97
2023-05-24T13:14:18.267Z,97962.78
2023-05-24T13:16:45.187Z,97947.00
2023-05-24T13:19:12.401Z,97950.84
2023-05-24T13:21:39.794Z,97943.53
2023-05-24T13:24:07.509Z,97942.94
2023-05-24T13:26:38.131Z,97939.97
2023-05-24T13:31:40.540Z,97939.16
2023-05-24T13:34:09.017Z,97938.06
2023-05-24T13:36:36.214Z,97939.84
2023-05-24T13:39:14.943Z,97937.41
2023-05-24T13:41:45.019Z,97931.13
2023-05-24T13:44:14.463Z,97927.63
2023-05-24T13:46:42.558Z,97925.47
2023-05-24T13:49:10.906Z,97922.00
2023-05-24T13:51:38.989Z,97928.78
2023-05-24T13:54:07.481Z,97919.03
2023-05-24T13:56:35.841Z,97929.06
2023-05-24T13:59:04.236Z,97925.59
2023-05-24T14:01:31.859Z,97920.44
2023-05-24T14:04:00.838Z,97911.22
2023-05-24T14:06:27.672Z,97907.88
2023-05-24T14:08:54.549Z,97909.78
2023-05-24T14:11:22.252Z,97907.72
2023-05-24T14:16:19.758Z,97916.88
2023-05-24T14:18:48.869Z,97910.03
2023-05-24T14:21:16.218Z,97902.28
2023-05-24T14:23:42.994Z,97899.06
2023-05-24T14:26:09.903Z,97914.56
2023-05-24T14:28:36.708Z,97904.34
2023-05-24T14:31:03.636Z,97905.81
2023-05-24T14:33:30.456Z,97897.13
2023-05-24T14:35:57.334Z,97896.94
2023-05-24T14:38:24.950Z,97889.09
2023-05-24T14:40:52.158Z,97893.72
2023-05-24T14:43:18.994Z,97890.94
2023-05-24T14:45:46.046Z,97883.72
2023-05-24T14:48:13.325Z,97878.19
2023-05-24T14:50:41.073Z,97878.38
2023-05-24T14:53:14.168Z,97878.38
2023-05-24T14:55:42.700Z,97880.31
2023-05-24T14:58:11.872Z,97879.09
2023-05-24T15:00:40.875Z,97883.28
2023-05-24T15:03:09.408Z,97889.31
2023-05-24T15:05:36.918Z,97876.28
2023-05-24T15:08:05.466Z,97875.97
2023-05-24T15:10:33.101Z,97872.50
2023-05-24T15:13:01.214Z,97876.81
2023-05-24T15:15:31.621Z,97871.69
2023-05-24T15:17:59.862Z,97860.78
2023-05-24T15:20:26.878Z,97865.06
2023-05-24T15:22:54.208Z,97867.41
2023-05-24T15:25:21.352Z,97867.19
2023-05-24T15:27:48.307Z,97875.72
2023-05-24T15:30:17.183Z,97879.69
2023-05-24T15:32:46.002Z,97876.22
2023-05-24T15:35:13.434Z,97870.09
2023-05-24T15:37:41.393Z,97859.09
2023-05-24T15:40:10.192Z,97865.34
2023-05-24T15:42:36.996Z,97865.63
2023-05-24T15:45:04.376Z,97875.56
2023-05-24T15:47:36.239Z,97863.56
2023-05-24T15:50:04.165Z,97865.84
2023-05-24T15:52:30.966Z,97849.47
2023-05-24T15:54:57.758Z,97859.81
2023-05-24T15:57:24.582Z,97860.31
2023-05-24T15:59:51.392Z,97862.22
2023-05-24T16:02:21.151Z,97859.97
2023-05-24T16:04:48.487Z,97859.75
2023-05-24T16:07:15.249Z,97860.75
2023-05-24T16:09:42.049Z,97860.28
2023-05-24T16:12:09.812Z,97854.31
2023-05-24T16:14:37.554Z,97863.59
2023-05-24T16:17:05.399Z,97866.22
2023-05-24T16:19:32.195Z,97862.81
2023-05-24T16:21:59.047Z,97857.84
2023-05-24T16:24:26.890Z,97851.63
2023-05-24T16:26:53.798Z,97856.09
2023-05-24T16:29:21.243Z,97858.16
2023-05-24T16:31:48.209Z,97848.56
2023-05-24T16:34:16.371Z,97860.94
2023-05-24T16:36:45.703Z,97862.56
2023-05-24T16:39:12.575Z,97858.06
2023-05-24T16:41:40.265Z,97849.00
2023-05-24T16:44:07.399Z,97853.44
2023-05-24T16:46:34.747Z,97853.25
2023-05-24T16:49:03.330Z,97851.91
2023-05-24T16:51:30.283Z,97852.75
2023-05-24T16:53:57.152Z,97853.50
2023-05-24T16:56:23.936Z,97862.50
2023-05-24T16:58:51.056Z,97853.56
2023-05-24T17:01:18.022Z,97853.66
2023-05-24T17:03:45.096Z,97854.28
2023-05-24T17:06:12.000Z,97856.72
2023-05-24T17:08:38.759Z,97860.00
2023-05-24T17:11:06.747Z,97862.25
2023-05-24T17:13:34.059Z,97856.91
2023-05-24T17:16:03.015Z,97863.47
2023-05-24T17:18:29.969Z,97858.53
2023-05-24T17:21:02.129Z,97854.41
2023-05-24T17:23:32.292Z,97849.47
2023-05-24T17:26:00.738Z,97861.22
2023-05-24T17:28:27.951Z,97857.41
2023-05-24T17:31:00.339Z,97857.56
2023-05-24T17:33:29.886Z,97859.53
2023-05-24T17:35:57.494Z,97862.28
2023-05-24T17:38:25.268Z,97861.78
2023-05-24T17:40:58.900Z,97863.91
2023-05-24T17:43:31.605Z,97870.22
2023-05-24T17:46:09.393Z,97874.28
2023-05-24T17:48:38.705Z,97871.13
2023-05-24T17:51:08.245Z,97886.81
2023-05-24T17:53:36.889Z,97877.06
2023-05-24T17:56:06.602Z,97886.53
2023-05-24T17:58:36.329Z,97880.06
2023-05-24T18:01:08.342Z,97889.88
2023-05-24T18:03:37.047Z,97894.63
2023-05-24T18:06:08.188Z,97891.06
2023-05-24T18:08:37.984Z,97896.22
2023-05-24T18:11:08.227Z,97903.06
2023-05-24T18:13:37.004Z,97898.34
2023-05-24T18:16:03.879Z,97905.84
2023-05-24T18:18:30.715Z,97906.44
2023-05-24T18:20:57.537Z,97905.38
2023-05-24T18:23:24.443Z,97913.41
2023-05-24T18:26:00.909Z,97916.53
2023-05-24T18:28:28.754Z,97917.66
2023-05-24T18:30:56.112Z,97914.25
2023-05-24T18:48:03.566Z,97987.06
2023-05-24T18:50:30.442Z,97945.88
2023-05-24T18:52:57.198Z,97938.50
2023-05-24T18:55:23.977Z,97946.69
2023-05-24T18:57:53.549Z,97944.47
2023-05-24T19:00:22.782Z,97953.47
2023-05-24T19:02:50.114Z,97953.69
2023-05-24T19:05:17.032Z,97943.19
2023-05-24T19:07:43.873Z,97954.03
2023-05-24T19:10:11.043Z,97957.28
2023-05-24T19:12:37.879Z,97970.19
2023-05-24T19:15:05.783Z,97966.69
2023-05-24T19:17:32.557Z,97975.72
2023-05-24T19:19:59.408Z,97964.94
2023-05-24T19:22:27.541Z,97984.56
2023-05-24T19:24:56.021Z,97985.19
2023-05-24T19:27:24.366Z,97980.50
2023-05-24T19:29:51.427Z,97983.72
2023-05-24T19:32:20.194Z,97992.03
2023-05-24T19:34:47.244Z,98000.34
2023-05-24T19:37:14.193Z,97993.84
2023-05-24T19:39:40.995Z,98005.38
2023-05-24T19:42:07.850Z,98001.31
2023-05-24T19:44:34.743Z,98003.59
2023-05-24T19:47:01.497Z,98008.72
2023-05-24T19:49:28.345Z,98008.75
2023-05-24T19:51:55.209Z,98001.41
2023-05-24T19:54:22.205Z,98013.03
2023-05-24T19:56:50.958Z,97637.97
2023-05-24T19:59:18.728Z,98015.53
2023-05-24T20:01:45.709Z,98018.50
2023-05-24T20:04:12.909Z,98018.75
2023-05-24T20:06:40.257Z,98012.09
2023-05-24T20:09:07.097Z,98021.09
2023-05-24T20:11:34.649Z,98022.63
2023-05-24T20:14:02.106Z,98013.25
2023-05-24T20:16:30.890Z,98024.72
2023-05-24T20:18:57.722Z,98019.13
2023-05-24T20:21:24.571Z,98022.91
2023-05-24T20:23:57.763Z,98024.34
2023-05-24T20:26:26.017Z,98037.78
2023-05-24T20:28:52.984Z,98034.91
2023-05-24T20:31:19.918Z,98025.22
2023-05-24T20:33:46.809Z,98031.91
2023-05-24T20:36:14.982Z,98030.72
2023-05-24T20:38:41.886Z,98034.47
2023-05-24T20:41:08.809Z,98036.59
2023-05-24T20:43:35.729Z,98039.53
2023-05-24T20:46:02.608Z,98035.22
2023-05-24T20:48:29.457Z,98035.34
2023-05-24T20:50:56.391Z,98037.94
2023-05-24T20:53:23.249Z,98034.53
2023-05-24T20:55:50.097Z,98047.53
2023-05-24T20:58:17.718Z,98044.22
2023-05-24T21:00:44.569Z,98044.31
2023-05-24T21:03:11.548Z,98054.72
2023-05-24T21:05:40.005Z,98054.63
2023-05-24T21:08:06.982Z,98061.47
2023-05-24T21:10:33.983Z,98056.50
2023-05-24T21:13:00.834Z,98060.75
2023-05-24T21:15:27.597Z,98053.78
2023-05-24T21:17:54.396Z,98062.66
2023-05-24T21:20:21.289Z,98066.19
2023-05-24T21:22:48.639Z,98074.81
2023-05-24T21:25:15.764Z,98074.09
2023-05-24T21:27:42.555Z,98081.78
2023-05-24T21:30:10.009Z,98076.59
2023-05-24T21:32:36.821Z,98074.81
2023-05-24T21:35:03.914Z,98079.91
2023-05-24T21:37:30.732Z,98080.84
2023-05-24T21:39:57.510Z,98074.94
2023-05-24T21:42:24.262Z,98084.50
2023-05-24T21:44:51.016Z,98079.19
2023-05-24T21:47:17.839Z,98086.78
2023-05-24T21:49:44.662Z,98078.44
2023-05-24T21:52:11.561Z,98082.13
2023-05-24T21:54:38.410Z,98084.41
2023-05-24T21:57:06.677Z,98092.94
2023-05-24T21:59:33.503Z,98091.88
2023-05-24T22:02:00.376Z,98097.66
2023-05-24T22:04:27.180Z,98098.50
2023-05-24T22:06:53.942Z,98101.34
2023-05-24T22:09:20.712Z,98100.38
2023-05-24T22:11:47.493Z,98105.59
2023-05-24T22:14:14.343Z,98103.22
2023-05-24T22:16:41.291Z,98107.72
2023-05-24T22:19:14.975Z,98103.03
2023-05-24T22:21:43.600Z,98109.53
2023-05-24T22:24:10.701Z,98110.91
2023-05-24T22:26:38.109Z,98112.78
2023-05-24T22:29:04.947Z,98101.88
2023-05-24T22:31:35.025Z,98104.91
2023-05-24T22:34:02.404Z,98104.91
2023-05-24T22:36:37.747Z,98105.47
2023-05-24T22:39:05.562Z,98110.75
2023-05-24T22:41:32.446Z,98112.63
2023-05-24T22:43:59.703Z,98110.97
2023-05-24T22:46:26.575Z,98108.25
2023-05-24T22:48:53.455Z,98118.88
2023-05-24T22:51:20.824Z,98111.91
2023-05-24T22:53:48.145Z,98114.72
2023-05-24T22:56:15.746Z,98109.53
2023-05-24T22:58:42.522Z,98115.56
2023-05-24T23:01:09.285Z,98109.66
2023-05-24T23:03:36.226Z,98112.47
2023-05-24T23:06:05.938Z,98116.84
2023-05-24T23:08:33.582Z,98115.78
2023-05-24T23:11:00.794Z,98117.34
2023-05-24T23:13:27.920Z,98112.13
2023-05-24T23:15:58.497Z,98108.94
2023-05-24T23:18:26.343Z,98118.28
2023-05-24T23:20:56.548Z,98111.53
2023-05-24T23:23:24.719Z,98119.94
2023-05-24T23:25:51.760Z,98118.28
2023-05-24T23:28:18.957Z,98115.78
2023-05-24T23:30:46.038Z,98114.97
2023-05-24T23:33:12.820Z,98108.72
2023-05-24T23:35:39.941Z,98109.53
2023-05-24T23:38:06.903Z,98109.53
2023-05-24T23:40:36.474Z,98107.88
2023-05-24T23:43:04.160Z,98107.16
2023-05-24T23:45:31.316Z,98114.13
2023-05-24T23:47:59.196Z,98111.53
2023-05-24T23:50:27.238Z,98104.66
2023-05-24T23:52:54.954Z,98106.31
2023-05-24T23:55:23.167Z,98114.25
2023-05-24T23:57:50.232Z,98105.81
